createdAt,value
2017-05-29T00:00:23.367Z,77.33
2017-05-29T00:01:23.395Z,77.71
2017-05-29T00:02:23.118Z,77.86
2017-05-29T00:03:23.146Z,77.86
2017-05-29T00:04:23.172Z,77.58
2017-05-29T00:05:23.199Z,77.48
2017-05-29T00:06:23.532Z,77.81
2017-05-29T00:07:23.610Z,78.25
2017-05-29T00:08:23.587Z,78.73
2017-05-29T00:09:23.614Z,78.73
2017-05-29T00:11:23.671Z,78.54
2017-05-29T00:13:23.724Z,78.44
2017-05-29T00:14:23.749Z,78.63
2017-05-29T00:15:38.394Z,78.83
2017-05-29T00:16:23.805Z,78.44
2017-05-29T00:17:23.831Z,78.15
2017-05-29T00:18:23.858Z,78.25
2017-05-29T00:19:23.884Z,78.34
2017-05-29T00:20:23.912Z,78.34
2017-05-29T00:21:23.942Z,78.34
2017-05-29T00:22:23.968Z,78.06
2017-05-29T00:23:23.997Z,78.06
2017-05-29T00:24:24.022Z,77.86
2017-05-29T00:27:24.105Z,77.67
2017-05-29T00:28:24.136Z,77.38
2017-05-29T00:29:24.159Z,77.09
2017-05-29T00:30:24.184Z,77.09
2017-05-29T00:31:38.829Z,77.09
2017-05-29T00:32:24.242Z,77
2017-05-29T00:33:24.267Z,77.28
2017-05-29T00:34:24.293Z,77.38
2017-05-29T00:35:24.324Z,78.06
2017-05-29T00:36:24.347Z,77.67
2017-05-29T00:37:24.375Z,78.34
2017-05-29T00:38:24.409Z,77.58
2017-05-29T00:39:24.430Z,77.58
2017-05-29T00:40:24.455Z,77.38
2017-05-29T00:41:24.482Z,76.9
2017-05-29T00:42:24.510Z,78.34
2017-05-29T00:43:24.538Z,78.63
2017-05-29T00:44:24.565Z,77.96
2017-05-29T00:45:24.590Z,77.86
2017-05-29T00:46:24.616Z,78.15
2017-05-29T00:47:39.261Z,77.58
2017-05-29T00:48:24.674Z,77.86
2017-05-29T00:49:24.700Z,77.48
2017-05-29T00:50:24.728Z,77.09
2017-05-29T00:51:24.755Z,76.71
2017-05-29T00:52:24.780Z,76.13
2017-05-29T00:53:24.810Z,76.32
2017-05-29T00:54:24.836Z,75.55
2017-05-29T00:55:24.557Z,75.3
2017-05-29T00:56:24.889Z,74.91
2017-05-29T00:57:24.918Z,75.1
2017-05-29T00:58:24.942Z,74.52
2017-05-29T00:59:24.970Z,74.18
2017-05-29T01:00:24.998Z,74.33
2017-05-29T01:01:25.022Z,74.37
2017-05-29T01:02:25.049Z,74.05
2017-05-29T01:03:39.694Z,74.33
2017-05-29T01:04:25.103Z,74.33
2017-05-29T01:05:25.130Z,74.37
2017-05-29T01:06:25.155Z,74.47
2017-05-29T01:07:25.182Z,74.33
2017-05-29T01:08:25.219Z,74.82
2017-05-29T01:09:24.936Z,74.91
2017-05-29T01:10:25.264Z,75.01
2017-05-29T01:11:25.291Z,74.82
2017-05-29T01:12:25.319Z,74.91
2017-05-29T01:13:25.349Z,74.72
2017-05-29T01:14:25.375Z,74.91
2017-05-29T01:15:25.099Z,75.01
2017-05-29T01:16:25.428Z,75.01
2017-05-29T01:17:25.458Z,75.1
2017-05-29T01:18:40.098Z,75.3
2017-05-29T01:19:25.512Z,75.68
2017-05-29T01:20:25.540Z,75.49
2017-05-29T01:21:25.560Z,75.26
2017-05-29T01:22:25.589Z,75.45
2017-05-29T01:23:25.615Z,76.07
2017-05-29T01:24:25.644Z,75.93
2017-05-29T01:25:25.672Z,76.51
2017-05-29T01:26:25.697Z,76.61
2017-05-29T01:27:25.723Z,76.42
2017-05-29T01:28:25.751Z,76.8
2017-05-29T01:30:25.805Z,76.9
2017-05-29T01:32:25.858Z,77
2017-05-29T01:33:25.886Z,77.09
2017-05-29T01:34:25.614Z,77.48
2017-05-29T01:35:25.938Z,77.38
2017-05-29T01:36:25.965Z,77
2017-05-29T01:37:26.040Z,77.19
2017-05-29T01:38:26.017Z,78.21
2017-05-29T01:39:26.044Z,78.63
2017-05-29T01:40:26.071Z,78.79
2017-05-29T01:41:26.097Z,78.4
2017-05-29T01:42:26.123Z,78.69
2017-05-29T01:43:26.152Z,79.17
2017-05-29T01:44:25.877Z,79.36
2017-05-29T01:45:26.208Z,79.46
2017-05-29T01:46:25.927Z,79.56
2017-05-29T01:47:26.259Z,79.17
2017-05-29T01:48:26.287Z,79.36
2017-05-29T01:49:26.313Z,80.04
2017-05-29T01:50:40.955Z,80.14
2017-05-29T01:51:26.366Z,80.48
2017-05-29T01:52:26.395Z,80.77
2017-05-29T01:53:26.422Z,80.04
2017-05-29T01:54:26.446Z,80.29
2017-05-29T01:55:26.474Z,80.14
2017-05-29T01:56:26.501Z,80.48
2017-05-29T01:57:26.525Z,81.29
2017-05-29T01:58:26.553Z,81.25
2017-05-29T02:00:26.604Z,81.25
2017-05-29T02:01:26.631Z,81.45
2017-05-29T02:02:26.666Z,82.02
2017-05-29T02:03:26.687Z,81.54
2017-05-29T02:04:26.715Z,81.83
2017-05-29T02:05:26.739Z,81.83
2017-05-29T02:06:41.383Z,81.35
2017-05-29T02:07:26.792Z,81.83
2017-05-29T02:08:26.825Z,82.12
2017-05-29T02:09:26.847Z,81.63
2017-05-29T02:10:26.871Z,81.93
2017-05-29T02:11:26.595Z,81.93
2017-05-29T02:12:26.925Z,81.45
2017-05-29T02:13:26.951Z,80.48
2017-05-29T02:14:27.029Z,80.48
2017-05-29T02:15:27.004Z,80.29
2017-05-29T02:16:27.031Z,79.9
2017-05-29T02:17:27.059Z,79.23
2017-05-29T02:19:27.115Z,79.43
2017-05-29T02:20:27.138Z,78.85
2017-05-29T02:21:26.861Z,78.46
2017-05-29T02:22:41.808Z,78.65
2017-05-29T02:23:27.217Z,78.56
2017-05-29T02:24:27.245Z,78.56
2017-05-29T02:25:27.289Z,78.56
2017-05-29T02:26:27.297Z,78.36
2017-05-29T02:27:27.326Z,78.36
2017-05-29T02:28:27.352Z,78.27
2017-05-29T02:29:27.382Z,78.46
2017-05-29T02:30:27.404Z,78.56
2017-05-29T02:32:27.458Z,78.27
2017-05-29T02:33:27.235Z,77.59
2017-05-29T02:34:27.511Z,76.92
2017-05-29T02:35:27.540Z,76.92
2017-05-29T02:36:27.566Z,76.63
2017-05-29T02:37:27.588Z,76.34
2017-05-29T02:38:42.232Z,76.34
2017-05-29T02:39:27.642Z,76.82
2017-05-29T02:40:27.668Z,75.76
2017-05-29T02:41:27.693Z,76.06
2017-05-29T02:42:27.417Z,75.76
2017-05-29T02:43:27.753Z,75.96
2017-05-29T02:44:27.470Z,76.25
2017-05-29T02:45:27.799Z,76.25
2017-05-29T02:46:27.524Z,75.76
2017-05-29T02:47:27.853Z,75.73
2017-05-29T02:48:27.575Z,75.96
2017-05-29T02:49:27.622Z,75.92
2017-05-29T02:50:27.931Z,76.11
2017-05-29T02:51:27.959Z,76.01
2017-05-29T02:52:27.985Z,76.31
2017-05-29T02:53:42.629Z,76.4
2017-05-29T02:54:28.045Z,76.31
2017-05-29T02:55:28.066Z,76.31
2017-05-29T02:56:28.092Z,76.59
2017-05-29T02:57:28.119Z,75.73
2017-05-29T02:58:28.144Z,76.21
2017-05-29T02:59:27.869Z,75.24
2017-05-29T03:00:28.205Z,75.44
2017-05-29T03:01:28.223Z,75.54
2017-05-29T03:02:28.248Z,75.57
2017-05-29T03:03:28.279Z,75.67
2017-05-29T03:04:28.305Z,75.19
2017-05-29T03:05:28.331Z,75.57
2017-05-29T03:07:28.380Z,75.57
2017-05-29T03:08:28.410Z,75.76
2017-05-29T03:09:28.486Z,75.38
2017-05-29T03:10:28.459Z,76.15
2017-05-29T03:11:28.486Z,75.19
2017-05-29T03:12:28.213Z,76.15
2017-05-29T03:13:28.545Z,76.06
2017-05-29T03:14:28.565Z,76.25
2017-05-29T03:15:28.591Z,76.06
2017-05-29T03:16:28.620Z,77.11
2017-05-29T03:17:28.644Z,77.88
2017-05-29T03:18:28.671Z,77.88
2017-05-29T03:19:28.697Z,77.5
2017-05-29T03:20:28.423Z,77.21
2017-05-29T03:23:28.803Z,78.17
2017-05-29T03:24:28.831Z,79.43
2017-05-29T03:25:43.473Z,79.33
2017-05-29T03:26:28.882Z,79.61
2017-05-29T03:27:28.910Z,79.1
2017-05-29T03:28:28.935Z,79.38
2017-05-29T03:29:28.963Z,79.96
2017-05-29T03:30:28.989Z,80.44
2017-05-29T03:31:29.016Z,80.06
2017-05-29T03:32:29.041Z,79.96
2017-05-29T03:34:28.793Z,79.77
2017-05-29T03:35:29.121Z,79.58
2017-05-29T03:37:28.871Z,79.13
2017-05-29T03:38:29.201Z,78.85
2017-05-29T03:40:29.253Z,79.43
2017-05-29T03:41:43.896Z,79.43
2017-05-29T03:42:29.307Z,80.19
2017-05-29T03:43:29.333Z,80.48
2017-05-29T03:44:29.359Z,81.12
2017-05-29T03:45:29.385Z,80.54
2017-05-29T03:46:29.410Z,81.02
2017-05-29T03:47:29.439Z,81.5
2017-05-29T03:48:29.467Z,81.5
2017-05-29T03:49:29.492Z,81.02
2017-05-29T03:50:29.516Z,81.25
2017-05-29T03:51:29.542Z,81.25
2017-05-29T03:52:29.571Z,81.6
2017-05-29T03:53:29.599Z,81.16
2017-05-29T03:54:29.623Z,81.06
2017-05-29T03:55:29.648Z,81.06
2017-05-29T03:56:29.675Z,81.45
2017-05-29T03:57:44.320Z,81.35
2017-05-29T03:58:29.730Z,80.68
2017-05-29T03:59:29.760Z,80
2017-05-29T04:00:29.784Z,79.36
2017-05-29T04:01:29.809Z,78.88
2017-05-29T04:02:29.835Z,78.88
2017-05-29T04:03:30.164Z,79.27
2017-05-29T04:04:29.889Z,79.56
2017-05-29T04:05:29.914Z,79.27
2017-05-29T04:06:29.940Z,79.46
2017-05-29T04:07:29.968Z,78.79
2017-05-29T04:08:29.996Z,78.5
2017-05-29T04:09:30.021Z,77.67
2017-05-29T04:10:30.050Z,76.23
2017-05-29T04:11:30.076Z,74.37
2017-05-29T04:12:30.102Z,72.86
2017-05-29T04:13:44.747Z,70.68
2017-05-29T04:14:30.209Z,69.46
2017-05-29T04:15:30.184Z,69.07
2017-05-29T04:16:30.211Z,68.88
2017-05-29T04:17:30.238Z,68.4
2017-05-29T04:18:30.269Z,68.98
2017-05-29T04:19:30.297Z,70.87
2017-05-29T04:20:30.323Z,71.84
2017-05-29T04:21:30.349Z,71.84
2017-05-29T04:22:30.377Z,70.68
2017-05-29T04:23:30.408Z,70.87
2017-05-29T04:25:30.461Z,71.64
2017-05-29T04:26:30.491Z,71.64
2017-05-29T04:27:30.520Z,71.1
2017-05-29T04:28:45.164Z,69.46
2017-05-29T04:29:30.575Z,69.26
2017-05-29T04:30:30.602Z,68.88
2017-05-29T04:31:30.631Z,68.14
2017-05-29T04:32:30.659Z,67.21
2017-05-29T04:33:30.689Z,65.98
2017-05-29T04:34:30.716Z,65.14
2017-05-29T04:35:30.744Z,63.82
2017-05-29T04:36:30.773Z,61.33
2017-05-29T04:37:30.802Z,60.03
2017-05-29T04:38:30.844Z,58.09
2017-05-29T04:39:30.861Z,55.43
2017-05-29T04:40:30.889Z,54.49
2017-05-29T04:41:30.920Z,53.54
2017-05-29T04:42:30.950Z,51.82
2017-05-29T04:43:30.984Z,51.23
2017-05-29T04:44:31.019Z,49.92
2017-05-29T04:45:31.045Z,48.97
2017-05-29T04:46:31.127Z,48.51
2017-05-29T04:47:30.815Z,48.41
2017-05-29T04:48:31.141Z,47.53
2017-05-29T04:49:31.172Z,47.27
2017-05-29T04:50:31.205Z,46
2017-05-29T04:51:31.237Z,45.34
2017-05-29T04:52:31.269Z,43.78
2017-05-29T04:53:31.303Z,42.85
2017-05-29T04:54:31.336Z,42.97
2017-05-29T04:55:31.369Z,42.77
2017-05-29T04:57:31.437Z,40.95
2017-05-29T04:58:31.470Z,40.39
2017-05-29T04:59:31.504Z,39.78
2017-05-29T05:00:46.156Z,39.1
2017-05-29T05:01:31.571Z,39.02
2017-05-29T05:02:31.605Z,38.34
2017-05-29T05:03:31.639Z,37.19
2017-05-29T05:04:31.674Z,36.43
2017-05-29T05:05:31.708Z,36.25
2017-05-29T05:06:31.745Z,35.76
2017-05-29T05:07:31.780Z,36.04
2017-05-29T05:08:31.814Z,35.65
2017-05-29T05:09:31.848Z,35.75
2017-05-29T05:10:31.881Z,36.24
2017-05-29T05:11:31.918Z,35.47
2017-05-29T05:12:31.953Z,35.19
2017-05-29T05:13:31.688Z,35.19
2017-05-29T05:14:31.722Z,34.9
2017-05-29T05:15:31.758Z,34.23
2017-05-29T05:16:46.717Z,33.46
2017-05-29T05:17:32.134Z,32.4
2017-05-29T05:18:32.168Z,32.21
2017-05-29T05:19:32.205Z,32.81
2017-05-29T05:20:31.937Z,32.81
2017-05-29T05:21:32.276Z,31.84
2017-05-29T05:22:32.009Z,31.26
2017-05-29T05:23:32.347Z,31.07
2017-05-29T05:24:32.082Z,31.64
2017-05-29T05:25:32.117Z,31.15
2017-05-29T05:26:32.458Z,31.45
2017-05-29T05:28:32.531Z,32.2
2017-05-29T05:29:32.567Z,32.27
2017-05-29T05:30:32.302Z,32.78
2017-05-29T05:31:32.335Z,32.57
2017-05-29T05:32:47.295Z,33.26
2017-05-29T05:33:32.411Z,33.12
2017-05-29T05:34:32.446Z,31.86
2017-05-29T05:35:32.482Z,31.1
2017-05-29T05:36:32.517Z,31.58
2017-05-29T05:37:32.858Z,31.07
2017-05-29T05:38:32.591Z,31.94
2017-05-29T05:39:32.931Z,31.84
2017-05-29T05:40:33.017Z,31.76
2017-05-29T05:41:33.007Z,31.84
2017-05-29T05:43:32.773Z,30.9
2017-05-29T05:44:33.112Z,31.16
2017-05-29T05:45:32.847Z,30.19
2017-05-29T05:46:33.186Z,29.62
2017-05-29T05:47:32.919Z,29.94
2017-05-29T05:48:47.880Z,30.39
2017-05-29T05:49:33.302Z,30.49
2017-05-29T05:50:33.035Z,30.77
2017-05-29T05:51:33.375Z,30
2017-05-29T05:52:33.107Z,29.59
2017-05-29T05:53:33.142Z,28.92
2017-05-29T05:54:33.177Z,28.75
2017-05-29T05:55:33.216Z,27.5
2017-05-29T05:56:33.624Z,27.7
2017-05-29T05:57:33.596Z,26.53
2017-05-29T05:58:33.630Z,26.63
2017-05-29T05:59:33.672Z,25.76
2017-05-29T06:00:33.406Z,26.07
2017-05-29T06:01:33.745Z,26.07
2017-05-29T06:02:33.479Z,24.49
2017-05-29T06:03:48.441Z,24.15
2017-05-29T06:04:33.857Z,24.23
2017-05-29T06:05:33.590Z,23.94
2017-05-29T06:06:33.933Z,23.84
2017-05-29T06:07:33.972Z,23.95
2017-05-29T06:08:34.014Z,23.27
2017-05-29T06:09:34.048Z,23.47
2017-05-29T06:10:33.783Z,23.65
2017-05-29T06:11:33.820Z,23.46
2017-05-29T06:12:34.162Z,24.15
2017-05-29T06:13:34.200Z,24.15
2017-05-29T06:14:34.242Z,22.67
2017-05-29T06:17:34.353Z,23.26
2017-05-29T06:18:34.395Z,22.38
2017-05-29T06:19:34.432Z,21.6
2017-05-29T06:20:34.471Z,22.38
2017-05-29T06:21:34.509Z,24.02
2017-05-29T06:22:34.549Z,23.32
2017-05-29T06:23:34.589Z,21.59
2017-05-29T06:24:34.631Z,22.58
2017-05-29T06:25:34.363Z,23.11
2017-05-29T06:26:34.705Z,23.19
2017-05-29T06:27:34.743Z,22.52
2017-05-29T06:28:34.785Z,22.55
2017-05-29T06:29:34.824Z,21.57
2017-05-29T06:30:34.860Z,21.58
2017-05-29T06:31:34.899Z,22.05
2017-05-29T06:32:34.944Z,21.69
2017-05-29T06:33:34.980Z,20.94
2017-05-29T06:34:35.019Z,20.55
2017-05-29T06:35:49.678Z,20.56
2017-05-29T06:36:35.098Z,22.38
2017-05-29T06:37:35.141Z,24.08
2017-05-29T06:38:35.182Z,24.25
2017-05-29T06:39:35.217Z,23.96
2017-05-29T06:40:35.254Z,24.27
2017-05-29T06:41:35.296Z,24
2017-05-29T06:42:35.334Z,23.8
2017-05-29T06:43:35.379Z,23.31
2017-05-29T06:44:35.414Z,23.13
2017-05-29T06:45:35.453Z,23.8
2017-05-29T06:46:35.494Z,23.42
2017-05-29T06:48:35.267Z,22.19
2017-05-29T06:49:35.609Z,22.58
2017-05-29T06:50:35.648Z,23.63
2017-05-29T06:51:50.310Z,22.92
2017-05-29T06:52:35.727Z,22.64
2017-05-29T06:53:35.767Z,21.48
2017-05-29T06:54:35.808Z,21.78
2017-05-29T06:55:35.846Z,21.22
2017-05-29T06:56:35.883Z,20.83
2017-05-29T06:57:35.923Z,20.92
2017-05-29T06:58:35.967Z,20.94
2017-05-29T06:59:36.003Z,21.25
2017-05-29T07:00:36.043Z,20.81
2017-05-29T07:01:36.085Z,21.5
2017-05-29T07:03:36.162Z,22.08
2017-05-29T07:04:36.201Z,21.69
2017-05-29T07:05:36.243Z,21.42
2017-05-29T07:06:36.283Z,21.5
2017-05-29T07:07:50.991Z,20.81
2017-05-29T07:08:36.370Z,21.13
2017-05-29T07:09:36.402Z,20.55
2017-05-29T07:10:36.439Z,20.55
2017-05-29T07:11:36.478Z,20.94
2017-05-29T07:12:36.520Z,21.02
2017-05-29T07:13:36.562Z,21.71
2017-05-29T07:14:36.599Z,21.79
2017-05-29T07:15:36.639Z,21.9
2017-05-29T07:16:36.679Z,21.8
2017-05-29T07:17:36.727Z,21.61
2017-05-29T07:18:36.758Z,21.42
2017-05-29T07:19:36.801Z,22.56
2017-05-29T07:21:36.880Z,22.78
2017-05-29T07:22:36.920Z,21.6
2017-05-29T07:23:51.579Z,23.48
2017-05-29T07:24:37.000Z,24.41
2017-05-29T07:25:37.038Z,25.66
2017-05-29T07:26:37.081Z,26.12
2017-05-29T07:27:37.121Z,26.53
2017-05-29T07:28:37.159Z,27.09
2017-05-29T07:29:37.195Z,26.14
2017-05-29T07:30:36.933Z,24.4
2017-05-29T07:31:37.277Z,23.82
2017-05-29T07:32:37.371Z,23.73
2017-05-29T07:33:37.357Z,22.77
2017-05-29T07:34:37.407Z,22.31
2017-05-29T07:35:37.435Z,21.62
2017-05-29T07:36:37.475Z,21.42
2017-05-29T07:37:37.516Z,21.04
2017-05-29T07:38:52.175Z,20.83
2017-05-29T07:39:37.295Z,20.86
2017-05-29T07:40:37.331Z,20.97
2017-05-29T07:41:37.371Z,21.06
2017-05-29T07:42:37.412Z,21.06
2017-05-29T07:43:37.756Z,21.25
2017-05-29T07:44:37.490Z,21.17
2017-05-29T07:45:37.833Z,20.57
2017-05-29T07:46:37.876Z,19.6
2017-05-29T07:47:37.914Z,20.7
2017-05-29T07:48:37.954Z,20.68
2017-05-29T07:49:37.994Z,21.06
2017-05-29T07:50:38.033Z,21.71
2017-05-29T07:52:38.113Z,21.15
2017-05-29T07:53:38.157Z,20.76
2017-05-29T07:54:38.195Z,21.35
2017-05-29T07:55:38.235Z,20.95
2017-05-29T07:56:38.284Z,21.06
2017-05-29T07:57:38.312Z,20.67
2017-05-29T07:58:38.353Z,21.56
2017-05-29T07:59:38.088Z,21.25
2017-05-29T08:00:38.433Z,21.27
2017-05-29T08:01:38.473Z,20.68
2017-05-29T08:02:38.509Z,19.92
2017-05-29T08:03:38.552Z,20.21
2017-05-29T08:05:38.631Z,20.12
2017-05-29T08:06:38.686Z,19.24
2017-05-29T08:07:38.713Z,19.05
2017-05-29T08:08:38.753Z,19.04
2017-05-29T08:09:38.792Z,18.75
2017-05-29T08:10:53.452Z,20.63
2017-05-29T08:11:38.874Z,20.57
2017-05-29T08:12:38.913Z,20
2017-05-29T08:13:38.958Z,21.18
2017-05-29T08:14:38.992Z,21.06
2017-05-29T08:15:39.081Z,21.36
2017-05-29T08:16:39.275Z,22.14
2017-05-29T08:17:39.110Z,23.04
2017-05-29T08:18:39.149Z,23.97
2017-05-29T08:19:39.189Z,24.26
2017-05-29T08:20:39.229Z,23
2017-05-29T08:21:39.268Z,22.53
2017-05-29T08:22:39.311Z,22.63
2017-05-29T08:23:39.046Z,22.45
2017-05-29T08:24:39.084Z,21.67
2017-05-29T08:25:39.427Z,22.16
2017-05-29T08:26:54.088Z,22.53
2017-05-29T08:27:39.509Z,22.81
2017-05-29T08:28:39.601Z,22.82
2017-05-29T08:29:39.284Z,22.84
2017-05-29T08:30:39.632Z,22.45
2017-05-29T08:31:39.664Z,22.56
2017-05-29T08:32:39.705Z,23.44
2017-05-29T08:33:39.743Z,23.54
2017-05-29T08:34:39.788Z,23.44
2017-05-29T08:35:39.822Z,23.54
2017-05-29T08:36:39.862Z,22.67
2017-05-29T08:37:39.952Z,23.24
2017-05-29T08:39:39.681Z,22.77
2017-05-29T08:40:40.020Z,22.58
2017-05-29T08:41:40.058Z,22.86
2017-05-29T08:42:54.718Z,22.49
2017-05-29T08:43:40.136Z,21.61
2017-05-29T08:44:40.176Z,22.89
2017-05-29T08:45:40.218Z,24.02
2017-05-29T08:46:40.253Z,23.61
2017-05-29T08:47:40.294Z,23.25
2017-05-29T08:48:40.343Z,23.83
2017-05-29T08:49:40.374Z,23.93
2017-05-29T08:50:40.409Z,23.93
2017-05-29T08:51:40.448Z,25.59
2017-05-29T08:53:40.529Z,25.56
2017-05-29T08:54:40.567Z,25.28
2017-05-29T08:55:40.606Z,24.5
2017-05-29T08:56:40.645Z,24.32
2017-05-29T08:57:40.681Z,24.03
2017-05-29T08:58:55.341Z,24.4
2017-05-29T08:59:40.759Z,25.09
2017-05-29T09:00:40.802Z,24.02
2017-05-29T09:01:40.838Z,24.02
2017-05-29T09:02:40.877Z,24.32
2017-05-29T09:03:40.915Z,24.13
2017-05-29T09:04:40.951Z,24.72
2017-05-29T09:05:40.990Z,24.68
2017-05-29T09:06:41.030Z,24.41
2017-05-29T09:07:41.069Z,24.81
2017-05-29T09:08:41.107Z,25.96
2017-05-29T09:09:41.145Z,25.84
2017-05-29T09:10:41.232Z,25.46
2017-05-29T09:11:41.223Z,26.15
2017-05-29T09:12:41.261Z,25.45
2017-05-29T09:13:55.920Z,24.29
2017-05-29T09:14:41.338Z,24.43
2017-05-29T09:15:41.378Z,24.33
2017-05-29T09:16:41.413Z,23.55
2017-05-29T09:17:41.451Z,24.05
2017-05-29T09:18:41.490Z,24.22
2017-05-29T09:19:41.578Z,24.22
2017-05-29T09:20:41.567Z,24.72
2017-05-29T09:21:41.604Z,24.32
2017-05-29T09:22:41.640Z,24.32
2017-05-29T09:23:41.680Z,24.43
2017-05-29T09:24:41.721Z,24.82
2017-05-29T09:25:41.755Z,25.01
2017-05-29T09:27:41.528Z,25.68
2017-05-29T09:28:41.868Z,25.39
2017-05-29T09:29:41.908Z,26.76
2017-05-29T09:30:41.945Z,26.15
2017-05-29T09:31:41.983Z,26.17
2017-05-29T09:32:42.021Z,25.29
2017-05-29T09:33:42.056Z,24.43
2017-05-29T09:34:42.149Z,24.05
2017-05-29T09:35:42.132Z,24.25
2017-05-29T09:36:42.170Z,24.92
2017-05-29T09:37:42.207Z,24.72
2017-05-29T09:38:42.245Z,23.93
2017-05-29T09:39:42.283Z,23.66
2017-05-29T09:41:42.357Z,23.77
2017-05-29T09:42:42.398Z,23.95
2017-05-29T09:43:42.133Z,24.55
2017-05-29T09:44:42.469Z,26.68
2017-05-29T09:45:57.128Z,28.7
2017-05-29T09:46:42.550Z,28.55
2017-05-29T09:47:42.582Z,28.95
2017-05-29T09:48:42.622Z,29.21
2017-05-29T09:49:42.660Z,29.43
2017-05-29T09:50:42.695Z,29.74
2017-05-29T09:51:42.736Z,30.21
2017-05-29T09:52:42.838Z,30.4
2017-05-29T09:53:42.822Z,30.4
2017-05-29T09:54:42.845Z,30.1
2017-05-29T09:55:42.881Z,29.33
2017-05-29T09:57:42.955Z,28.88
2017-05-29T09:58:42.990Z,27.48
2017-05-29T10:00:43.061Z,28.64
2017-05-29T10:01:57.719Z,27.19
2017-05-29T10:02:43.138Z,27.41
2017-05-29T10:03:43.176Z,27.41
2017-05-29T10:04:43.208Z,27.79
2017-05-29T10:05:43.245Z,27.41
2017-05-29T10:06:43.282Z,26.14
2017-05-29T10:07:43.320Z,25.57
2017-05-29T10:08:43.050Z,25.38
2017-05-29T10:09:43.389Z,26.15
2017-05-29T10:10:43.426Z,26.82
2017-05-29T10:11:43.462Z,27.59
2017-05-29T10:12:43.504Z,26.9
2017-05-29T10:13:43.535Z,26.9
2017-05-29T10:14:43.573Z,27.91
2017-05-29T10:15:43.607Z,27.79
2017-05-29T10:16:43.646Z,26.62
2017-05-29T10:17:58.299Z,26.53
2017-05-29T10:18:43.718Z,27.41
2017-05-29T10:19:43.752Z,27.31
2017-05-29T10:20:43.788Z,27.22
2017-05-29T10:21:43.824Z,27
2017-05-29T10:22:43.861Z,27.7
2017-05-29T10:23:43.898Z,27.5
2017-05-29T10:24:43.936Z,27.51
2017-05-29T10:25:43.969Z,27.69
2017-05-29T10:26:44.004Z,27.01
2017-05-29T10:27:43.737Z,27.61
2017-05-29T10:28:44.077Z,28.09
2017-05-29T10:29:44.119Z,28.19
2017-05-29T10:30:43.849Z,27.79
2017-05-29T10:31:44.186Z,28.47
2017-05-29T10:32:44.221Z,28.77
2017-05-29T10:33:58.876Z,29.34
2017-05-29T10:34:44.293Z,29.43
2017-05-29T10:35:44.026Z,30.79
2017-05-29T10:36:44.364Z,30.84
2017-05-29T10:37:44.400Z,30.45
2017-05-29T10:38:44.435Z,30.05
2017-05-29T10:39:44.471Z,30.82
2017-05-29T10:40:44.507Z,31.12
2017-05-29T10:41:44.543Z,30.81
2017-05-29T10:42:44.579Z,30.82
2017-05-29T10:43:44.613Z,31.3
2017-05-29T10:44:44.660Z,31.57
2017-05-29T10:45:44.685Z,30.78
2017-05-29T10:46:44.725Z,31.73
2017-05-29T10:47:44.454Z,31.54
2017-05-29T10:48:59.412Z,31.84
2017-05-29T10:49:44.525Z,31.96
2017-05-29T10:50:44.659Z,31.57
2017-05-29T10:51:44.897Z,30.91
2017-05-29T10:52:44.933Z,30.91
2017-05-29T10:53:44.970Z,31.09
2017-05-29T10:54:45.003Z,31.1
2017-05-29T10:55:45.038Z,30.7
2017-05-29T10:56:45.075Z,30.52
2017-05-29T10:57:45.112Z,30.4
2017-05-29T10:58:44.841Z,29.14
2017-05-29T10:59:45.179Z,29.44
2017-05-29T11:00:45.214Z,30.04
2017-05-29T11:02:45.285Z,30.63
2017-05-29T11:03:45.319Z,30.91
2017-05-29T11:04:45.355Z,31.47
2017-05-29T11:05:45.391Z,31.57
2017-05-29T11:06:45.424Z,30.88
2017-05-29T11:07:45.156Z,31.38
2017-05-29T11:08:45.492Z,29.14
2017-05-29T11:09:45.531Z,29.53
2017-05-29T11:10:45.563Z,28.65
2017-05-29T11:11:45.293Z,28.65
2017-05-29T11:12:45.932Z,28.77
2017-05-29T11:13:45.666Z,29.63
2017-05-29T11:15:45.434Z,30.65
2017-05-29T11:16:45.769Z,30.65
2017-05-29T11:17:45.806Z,30.96
2017-05-29T11:18:45.842Z,30.21
2017-05-29T11:19:45.886Z,30.5
2017-05-29T11:21:00.529Z,29.72
2017-05-29T11:21:45.945Z,30.1
2017-05-29T11:22:45.982Z,30.01
2017-05-29T11:23:46.013Z,29.91
2017-05-29T11:24:46.099Z,30.37
2017-05-29T11:25:45.781Z,30.55
2017-05-29T11:26:46.117Z,29.98
2017-05-29T11:27:46.150Z,30.19
2017-05-29T11:28:46.185Z,28.72
2017-05-29T11:29:46.220Z,28.54
2017-05-29T11:30:46.254Z,28.25
2017-05-29T11:31:46.287Z,29.72
2017-05-29T11:32:46.322Z,30.16
2017-05-29T11:33:46.358Z,30.26
2017-05-29T11:35:46.425Z,28.72
2017-05-29T11:37:01.080Z,28.82
2017-05-29T11:37:46.192Z,29.5
2017-05-29T11:38:46.528Z,29.41
2017-05-29T11:39:46.562Z,28.44
2017-05-29T11:40:46.598Z,28.44
2017-05-29T11:41:46.679Z,29.52
2017-05-29T11:42:46.665Z,29.43
2017-05-29T11:43:46.698Z,29.24
2017-05-29T11:44:46.737Z,29.44
2017-05-29T11:45:46.765Z,29.82
2017-05-29T11:46:46.801Z,30.02
2017-05-29T11:47:46.835Z,29.73
2017-05-29T11:48:46.869Z,29.83
2017-05-29T11:50:46.937Z,30.12
2017-05-29T11:51:46.973Z,29.72
2017-05-29T11:53:01.624Z,30.21
2017-05-29T11:53:47.039Z,29.72
2017-05-29T11:54:46.769Z,29.24
2017-05-29T11:55:47.108Z,29.72
2017-05-29T11:56:47.140Z,29.14
2017-05-29T11:57:46.871Z,29.44
2017-05-29T11:58:47.209Z,29.34
2017-05-29T11:59:47.243Z,29.72
2017-05-29T12:00:46.973Z,29.22
2017-05-29T12:01:47.311Z,30.11
2017-05-29T12:02:47.346Z,30.18
2017-05-29T12:03:47.410Z,30.65
2017-05-29T12:04:47.412Z,31.04
2017-05-29T12:05:47.143Z,30.29
2017-05-29T12:06:47.480Z,30.21
2017-05-29T12:07:47.514Z,30
2017-05-29T12:09:02.168Z,30.21
2017-05-29T12:09:47.584Z,30.21
2017-05-29T12:10:47.616Z,29.83
2017-05-29T12:11:47.650Z,30.6
2017-05-29T12:12:47.686Z,30.78
2017-05-29T12:13:47.719Z,30.01
2017-05-29T12:14:47.751Z,29.9
2017-05-29T12:15:47.787Z,30.29
2017-05-29T12:16:47.522Z,29.7
2017-05-29T12:17:47.549Z,29.8
2017-05-29T12:18:47.584Z,30.47
2017-05-29T12:19:47.920Z,30.37
2017-05-29T12:20:47.957Z,30
2017-05-29T12:21:47.696Z,30.1
2017-05-29T12:22:48.022Z,30.37
2017-05-29T12:24:02.676Z,30.37
2017-05-29T12:24:48.090Z,31.07
2017-05-29T12:25:47.820Z,30.58
2017-05-29T12:26:48.159Z,30.49
2017-05-29T12:27:47.888Z,30.68
2017-05-29T12:28:47.924Z,30.78
2017-05-29T12:29:47.955Z,31.07
2017-05-29T12:30:48.292Z,31.65
2017-05-29T12:31:48.023Z,32.01
2017-05-29T12:32:48.360Z,30.85
2017-05-29T12:33:48.395Z,30.85
2017-05-29T12:34:48.430Z,31.14
2017-05-29T12:35:48.460Z,31.24
2017-05-29T12:36:48.192Z,30.47
2017-05-29T12:37:48.527Z,30.47
2017-05-29T12:38:48.561Z,30.67
2017-05-29T12:39:48.597Z,30.75
2017-05-29T12:40:48.629Z,30.75
2017-05-29T12:41:48.662Z,30.67
2017-05-29T12:42:48.697Z,30.55
2017-05-29T12:43:48.728Z,31.24
2017-05-29T12:44:48.763Z,31.03
2017-05-29T12:45:48.797Z,31.54
2017-05-29T12:46:48.829Z,30.75
2017-05-29T12:47:48.862Z,30.77
2017-05-29T12:48:48.898Z,30.57
2017-05-29T12:49:48.930Z,30.67
2017-05-29T12:50:48.963Z,30.85
2017-05-29T12:51:48.997Z,31.03
2017-05-29T12:53:49.065Z,32.46
2017-05-29T12:54:49.097Z,32.95
2017-05-29T12:56:03.750Z,32.46
2017-05-29T12:56:49.164Z,32.58
2017-05-29T12:57:48.946Z,31.8
2017-05-29T12:58:49.230Z,32.39
2017-05-29T12:59:49.265Z,32.78
2017-05-29T13:00:49.299Z,32.97
2017-05-29T13:01:49.030Z,32.01
2017-05-29T13:02:49.367Z,31.93
2017-05-29T13:03:49.399Z,31.83
2017-05-29T13:04:49.433Z,31.35
2017-05-29T13:05:49.463Z,30.68
2017-05-29T13:06:49.497Z,31.16
2017-05-29T13:07:49.530Z,30.94
2017-05-29T13:08:49.565Z,31.44
2017-05-29T13:09:49.598Z,31.93
2017-05-29T13:10:49.631Z,32.22
2017-05-29T13:12:04.284Z,32.12
2017-05-29T13:12:49.698Z,31.83
2017-05-29T13:13:49.730Z,32.42
2017-05-29T13:14:49.765Z,31.84
2017-05-29T13:15:49.801Z,32.23
2017-05-29T13:16:49.829Z,31.84
2017-05-29T13:17:49.863Z,31.76
2017-05-29T13:18:49.897Z,31.86
2017-05-29T13:19:49.938Z,31.76
2017-05-29T13:20:49.964Z,31.07
2017-05-29T13:21:49.996Z,31.86
2017-05-29T13:22:50.042Z,31.86
2017-05-29T13:23:50.070Z,31.77
2017-05-29T13:25:50.145Z,30.88
2017-05-29T13:26:50.162Z,31.44
2017-05-29T13:28:04.816Z,31.93
2017-05-29T13:28:50.240Z,30.78
2017-05-29T13:29:50.263Z,31.57
2017-05-29T13:30:50.298Z,31.65
2017-05-29T13:31:50.332Z,31.55
2017-05-29T13:32:50.367Z,31.27
2017-05-29T13:33:50.398Z,30.98